createdAt,value
2017-12-25T00:00:45.055Z,78.00
2017-12-25T00:03:12.950Z,77.80
2017-12-25T00:05:40.724Z,78.00
2017-12-25T00:08:09.284Z,77.90
2017-12-25T00:10:37.238Z,77.90
2017-12-25T00:13:04.993Z,77.90
2017-12-25T00:15:32.806Z,77.90
2017-12-25T00:18:00.582Z,77.70
2017-12-25T00:20:29.111Z,77.90
2017-12-25T00:22:56.907Z,77.80
2017-12-25T00:25:24.681Z,77.70
2017-12-25T00:27:52.313Z,77.90
2017-12-25T00:30:20.010Z,77.90
2017-12-25T00:32:47.640Z,77.80
2017-12-25T00:35:15.272Z,78.20
2017-12-25T00:37:42.902Z,77.70
2017-12-25T00:40:11.264Z,77.80
2017-12-25T00:42:38.875Z,77.60
2017-12-25T00:45:06.527Z,77.80
2017-12-25T00:47:34.125Z,78.00
2017-12-25T00:50:01.762Z,77.90
2017-12-25T00:52:29.372Z,78.00
2017-12-25T00:54:57.032Z,77.80
2017-12-25T00:57:24.637Z,77.90
2017-12-25T00:59:52.275Z,77.70
2017-12-25T01:02:20.672Z,77.70
2017-12-25T01:04:48.300Z,77.70
2017-12-25T01:07:15.937Z,78.00
2017-12-25T01:09:43.536Z,77.80
2017-12-25T01:12:11.910Z,77.80
2017-12-25T01:14:40.312Z,77.70
2017-12-25T01:17:07.944Z,77.60
2017-12-25T01:19:35.572Z,77.70
2017-12-25T01:22:03.161Z,77.70
2017-12-25T01:24:30.812Z,77.60
2017-12-25T01:26:58.437Z,77.70
2017-12-25T01:29:26.125Z,77.80
2017-12-25T01:31:53.729Z,77.60
2017-12-25T01:34:22.095Z,77.50
2017-12-25T01:36:50.472Z,77.40
2017-12-25T01:39:18.098Z,77.40
2017-12-25T01:41:45.760Z,77.30
2017-12-25T01:44:13.388Z,77.10
2017-12-25T01:46:41.022Z,77.10
2017-12-25T01:49:09.388Z,77.30
2017-12-25T01:51:37.024Z,77.30
2017-12-25T01:54:04.674Z,77.20
2017-12-25T01:56:40.233Z,77.20
2017-12-25T01:59:14.687Z,77.10
2017-12-25T02:01:49.286Z,77.00
2017-12-25T02:04:22.888Z,77.00
2017-12-25T02:07:02.309Z,76.90
2017-12-25T02:09:29.899Z,76.70
2017-12-25T02:11:57.530Z,77.00
2017-12-25T02:14:25.154Z,76.90
2017-12-25T02:16:53.528Z,77.10
2017-12-25T02:19:21.937Z,77.20
2017-12-25T02:21:49.552Z,77.20
2017-12-25T02:24:17.212Z,77.20
2017-12-25T02:26:44.816Z,76.90
2017-12-25T02:29:12.441Z,77.10
2017-12-25T02:31:40.809Z,76.90
2017-12-25T02:34:08.461Z,76.80
2017-12-25T02:36:36.053Z,77.00
2017-12-25T02:39:04.452Z,76.80
2017-12-25T02:41:32.069Z,76.70
2017-12-25T02:43:59.666Z,76.70
2017-12-25T02:46:27.297Z,76.90
2017-12-25T02:48:55.659Z,76.80
2017-12-25T02:51:23.293Z,76.80
2017-12-25T02:53:50.885Z,76.90
2017-12-25T02:56:18.498Z,76.90
2017-12-25T02:58:46.121Z,76.80
2017-12-25T03:01:14.490Z,77.00
2017-12-25T03:03:42.120Z,76.90
2017-12-25T03:06:09.757Z,76.90
2017-12-25T03:08:37.380Z,76.60
2017-12-25T03:11:05.794Z,76.90
2017-12-25T03:13:33.404Z,76.90
2017-12-25T03:16:01.025Z,76.90
2017-12-25T03:18:28.627Z,76.90
2017-12-25T03:20:56.326Z,76.70
2017-12-25T03:23:24.732Z,76.90
2017-12-25T03:25:52.362Z,76.80
2017-12-25T03:28:20.756Z,77.00
2017-12-25T03:30:48.353Z,76.90
2017-12-25T03:33:15.992Z,77.10
2017-12-25T03:35:43.584Z,77.00
2017-12-25T03:38:11.188Z,76.90
2017-12-25T03:40:38.813Z,76.80
2017-12-25T03:43:06.404Z,77.10
2017-12-25T03:45:34.801Z,76.80
2017-12-25T03:48:02.412Z,76.80
2017-12-25T03:50:30.793Z,76.90
2017-12-25T03:52:58.412Z,76.90
2017-12-25T03:55:26.013Z,77.00
2017-12-25T03:57:54.418Z,77.00
2017-12-25T04:00:22.797Z,77.10
2017-12-25T04:02:51.161Z,77.00
2017-12-25T04:05:19.563Z,77.00
2017-12-25T04:07:47.260Z,76.90
2017-12-25T04:10:14.899Z,76.80
2017-12-25T04:12:42.480Z,76.90
2017-12-25T04:15:10.077Z,76.90
2017-12-25T04:17:37.724Z,76.90
2017-12-25T04:20:05.341Z,77.00
2017-12-25T04:22:32.966Z,77.80
2017-12-25T04:25:01.363Z,77.10
2017-12-25T04:27:29.737Z,76.90
2017-12-25T04:29:58.146Z,76.80
2017-12-25T04:32:25.759Z,76.80
2017-12-25T04:34:53.385Z,76.80
2017-12-25T04:37:21.864Z,76.90
2017-12-25T04:39:49.533Z,76.80
2017-12-25T04:42:17.166Z,76.90
2017-12-25T04:44:44.753Z,76.80
2017-12-25T04:47:12.385Z,77.60
2017-12-25T04:49:39.989Z,76.80
2017-12-25T04:52:07.601Z,76.90
2017-12-25T04:54:35.220Z,76.80
2017-12-25T04:57:02.817Z,76.80
2017-12-25T04:59:31.220Z,76.90
2017-12-25T05:01:58.819Z,76.90
2017-12-25T05:04:26.439Z,76.80
2017-12-25T05:06:54.069Z,76.80
2017-12-25T05:09:22.425Z,77.00
2017-12-25T05:11:50.058Z,76.90
2017-12-25T05:14:17.657Z,76.90
2017-12-25T05:16:45.252Z,76.80
2017-12-25T05:19:12.893Z,76.90
2017-12-25T05:21:41.257Z,76.90
2017-12-25T05:24:09.696Z,77.90
2017-12-25T05:26:37.297Z,76.90
2017-12-25T05:29:04.897Z,76.80
2017-12-25T05:31:32.537Z,76.80
2017-12-25T05:34:00.899Z,77.00
2017-12-25T05:36:29.294Z,77.00
2017-12-25T05:38:57.651Z,77.10
2017-12-25T05:41:25.269Z,77.00
2017-12-25T05:43:52.901Z,76.90
2017-12-25T05:46:20.502Z,76.90
2017-12-25T05:48:48.126Z,76.90
2017-12-25T05:51:15.741Z,76.90
2017-12-25T05:53:43.376Z,76.80
2017-12-25T05:56:10.973Z,77.20
2017-12-25T05:58:38.586Z,77.00
2017-12-25T06:01:06.229Z,77.00
2017-12-25T06:03:34.133Z,77.00
2017-12-25T06:06:01.757Z,77.20
2017-12-25T06:08:29.381Z,77.10
2017-12-25T06:10:57.085Z,77.00
2017-12-25T06:13:24.748Z,77.20
2017-12-25T06:15:52.485Z,77.00
2017-12-25T06:18:24.956Z,77.20
2017-12-25T06:20:53.386Z,77.20
2017-12-25T06:23:21.056Z,77.00
2017-12-25T06:25:48.663Z,77.30
2017-12-25T06:28:17.225Z,77.50
2017-12-25T06:30:44.832Z,77.20
2017-12-25T06:33:12.520Z,77.20
2017-12-25T06:35:40.113Z,77.50
2017-12-25T06:38:07.822Z,77.40
2017-12-25T06:40:35.429Z,77.40
2017-12-25T06:43:03.083Z,77.50
2017-12-25T06:45:30.728Z,77.30
2017-12-25T06:47:58.342Z,77.40
2017-12-25T06:50:26.737Z,77.50
2017-12-25T06:52:54.339Z,77.40
2017-12-25T06:55:21.986Z,77.40
2017-12-25T06:57:49.612Z,77.40
2017-12-25T07:00:17.976Z,77.60
2017-12-25T07:02:46.364Z,77.70
2017-12-25T07:05:14.787Z,77.60
2017-12-25T07:07:42.448Z,78.50
2017-12-25T07:10:10.041Z,77.60
2017-12-25T07:12:37.674Z,77.50
2017-12-25T07:15:05.305Z,77.60
2017-12-25T07:17:32.909Z,77.70
2017-12-25T07:20:01.327Z,78.40
2017-12-25T07:22:29.687Z,77.70
2017-12-25T07:24:57.317Z,77.60
2017-12-25T07:27:24.925Z,77.80
2017-12-25T07:29:53.343Z,77.70
2017-12-25T07:32:20.941Z,77.60
2017-12-25T07:34:48.569Z,77.70
2017-12-25T07:37:16.158Z,77.60
2017-12-25T07:39:43.793Z,77.70
2017-12-25T07:42:11.469Z,77.70
2017-12-25T07:44:39.068Z,77.80
2017-12-25T07:47:07.453Z,77.70
2017-12-25T07:49:35.809Z,77.80
2017-12-25T07:52:03.450Z,77.80
2017-12-25T07:54:31.049Z,77.70
2017-12-25T07:56:59.409Z,77.80
2017-12-25T07:59:27.803Z,77.90
2017-12-25T08:01:56.164Z,78.00
2017-12-25T08:04:23.799Z,77.90
2017-12-25T08:06:51.402Z,77.90
2017-12-25T08:09:19.776Z,78.20
2017-12-25T08:11:47.408Z,78.10
2017-12-25T08:14:15.011Z,78.20
2017-12-25T08:16:43.401Z,78.10
2017-12-25T08:19:11.002Z,78.00
2017-12-25T08:21:38.623Z,78.00
2017-12-25T08:24:06.229Z,78.00
2017-12-25T08:26:33.883Z,77.90
2017-12-25T08:29:01.540Z,77.90
2017-12-25T08:31:29.205Z,78.10
2017-12-25T08:33:56.999Z,78.10
2017-12-25T08:36:24.607Z,78.00
2017-12-25T08:38:52.233Z,78.00
2017-12-25T08:41:20.597Z,77.80
2017-12-25T08:43:48.266Z,77.70
2017-12-25T08:46:15.873Z,77.80
2017-12-25T08:48:43.472Z,78.20
2017-12-25T08:51:11.121Z,78.20
2017-12-25T08:53:38.736Z,78.20
2017-12-25T08:56:07.126Z,77.90
2017-12-25T08:58:34.721Z,77.90
2017-12-25T09:01:02.589Z,77.90
2017-12-25T09:03:30.184Z,78.10
2017-12-25T09:05:58.563Z,78.30
2017-12-25T09:08:26.972Z,78.30
2017-12-25T09:10:54.568Z,78.10
2017-12-25T09:13:22.205Z,78.10
2017-12-25T09:15:49.801Z,78.10
2017-12-25T09:18:17.437Z,78.30
2017-12-25T09:20:45.033Z,78.00
2017-12-25T09:23:12.651Z,78.20
2017-12-25T09:25:40.273Z,78.10
2017-12-25T09:28:08.826Z,78.00
2017-12-25T09:30:36.455Z,78.00
2017-12-25T09:33:04.051Z,77.90
2017-12-25T09:35:31.678Z,77.90
2017-12-25T09:37:59.276Z,78.00
2017-12-25T09:40:26.897Z,78.10
2017-12-25T09:42:54.588Z,78.20
2017-12-25T09:45:22.200Z,78.90
2017-12-25T09:47:49.817Z,78.00
2017-12-25T09:50:17.438Z,78.10
2017-12-25T09:52:45.100Z,78.10
2017-12-25T09:55:12.776Z,78.30
2017-12-25T09:57:40.369Z,78.00
2017-12-25T10:00:08.099Z,78.10
2017-12-25T10:02:35.694Z,78.20
2017-12-25T10:05:03.325Z,78.10
2017-12-25T10:07:30.918Z,78.50
2017-12-25T10:09:58.541Z,78.30
2017-12-25T10:12:26.137Z,78.30
2017-12-25T10:14:53.869Z,78.20
2017-12-25T10:17:21.490Z,78.10
2017-12-25T10:19:50.033Z,78.30
2017-12-25T10:22:17.660Z,78.30
2017-12-25T10:24:45.259Z,78.20
2017-12-25T10:27:12.876Z,78.10
2017-12-25T10:29:40.481Z,78.20
2017-12-25T10:32:08.882Z,78.10
2017-12-25T10:34:37.260Z,78.10
2017-12-25T10:37:05.660Z,78.10
2017-12-25T10:39:33.293Z,78.10
2017-12-25T10:42:01.744Z,78.20
2017-12-25T10:44:29.352Z,78.00
2017-12-25T10:46:56.988Z,78.10
2017-12-25T10:49:24.725Z,78.20
2017-12-25T10:51:53.133Z,78.20
2017-12-25T10:54:20.756Z,78.20
2017-12-25T10:56:48.345Z,78.10
2017-12-25T10:59:16.181Z,78.20
2017-12-25T11:01:43.785Z,78.00
2017-12-25T11:04:11.388Z,77.90
2017-12-25T11:06:39.032Z,78.80
2017-12-25T11:09:06.630Z,78.00
2017-12-25T11:11:34.285Z,78.10
2017-12-25T11:14:01.893Z,78.00
2017-12-25T11:16:30.313Z,77.90
2017-12-25T11:18:57.917Z,77.90
2017-12-25T11:21:25.554Z,78.00
2017-12-25T11:23:53.211Z,77.90
2017-12-25T11:26:20.818Z,78.20
2017-12-25T11:28:49.187Z,78.00
2017-12-25T11:31:16.788Z,77.90
2017-12-25T11:33:44.437Z,77.90
2017-12-25T11:36:12.030Z,78.00
2017-12-25T11:38:39.653Z,77.90
2017-12-25T11:41:08.177Z,78.10
2017-12-25T11:43:35.817Z,78.00
2017-12-25T11:46:04.310Z,77.90
2017-12-25T11:48:31.939Z,77.90
2017-12-25T11:51:00.473Z,78.00
2017-12-25T11:53:28.351Z,77.90
2017-12-25T11:55:56.623Z,77.90
2017-12-25T11:58:24.496Z,77.80
2017-12-25T12:00:52.465Z,78.30
2017-12-25T12:03:20.343Z,78.40
2017-12-25T12:05:48.247Z,77.80
2017-12-25T12:08:17.113Z,77.70
2017-12-25T12:10:45.058Z,77.80
2017-12-25T12:13:12.873Z,77.80
2017-12-25T12:15:40.787Z,77.80
2017-12-25T12:18:08.595Z,77.60
2017-12-25T12:20:37.235Z,77.80
2017-12-25T12:23:05.210Z,77.60
2017-12-25T12:25:33.073Z,77.60
2017-12-25T12:28:02.608Z,77.40
2017-12-25T12:30:30.652Z,77.40
2017-12-25T12:32:58.484Z,77.50
2017-12-25T12:35:26.378Z,77.70
2017-12-25T12:37:56.179Z,77.40
2017-12-25T12:40:24.076Z,77.60
2017-12-25T12:42:51.920Z,77.40
2017-12-25T12:45:20.062Z,77.30
2017-12-25T12:47:48.076Z,78.00
2017-12-25T12:50:15.867Z,77.50
2017-12-25T12:52:44.258Z,77.80
2017-12-25T12:55:12.050Z,77.70
2017-12-25T12:57:39.825Z,77.50
2017-12-25T13:00:07.661Z,77.20
2017-12-25T13:02:35.457Z,77.10
2017-12-25T13:05:03.347Z,77.10
2017-12-25T13:07:31.204Z,77.20
2017-12-25T13:09:59.028Z,77.20
2017-12-25T13:12:26.791Z,77.30
2017-12-25T13:14:56.957Z,77.20
2017-12-25T13:17:25.027Z,76.90
2017-12-25T13:19:52.999Z,77.10
2017-12-25T13:22:21.592Z,77.10
2017-12-25T13:24:49.455Z,77.00
2017-12-25T13:27:17.430Z,76.80
2017-12-25T13:29:45.290Z,77.10
2017-12-25T13:32:13.207Z,77.10
2017-12-25T13:34:41.122Z,77.10
2017-12-25T13:37:11.266Z,77.00
2017-12-25T13:39:39.104Z,76.70
2017-12-25T13:42:06.975Z,77.50
2017-12-25T13:44:34.940Z,76.50
2017-12-25T13:47:02.755Z,76.40
2017-12-25T13:49:30.670Z,76.90
2017-12-25T13:51:58.462Z,77.20
2017-12-25T13:54:26.289Z,77.10
2017-12-25T13:56:54.128Z,76.60
2017-12-25T13:59:22.036Z,76.60
2017-12-25T14:01:49.907Z,76.50
2017-12-25T14:04:17.873Z,76.90
2017-12-25T14:06:45.748Z,76.70
2017-12-25T14:09:13.716Z,76.10
2017-12-25T14:11:41.580Z,76.10
2017-12-25T14:14:09.439Z,76.40
2017-12-25T14:16:37.412Z,76.30
2017-12-25T14:19:05.278Z,76.30
2017-12-25T14:21:33.362Z,76.30
2017-12-25T14:24:01.216Z,76.10
2017-12-25T14:26:29.081Z,76.00
2017-12-25T14:28:56.952Z,75.80
2017-12-25T14:31:24.823Z,75.60
2017-12-25T14:33:53.605Z,75.50
2017-12-25T14:36:21.479Z,75.50
2017-12-25T14:38:49.440Z,75.40
2017-12-25T14:41:17.305Z,75.10
2017-12-25T14:43:45.182Z,75.30
2017-12-25T14:46:12.801Z,75.10
2017-12-25T14:48:40.430Z,75.70
2017-12-25T14:51:08.834Z,74.80
2017-12-25T14:53:36.636Z,74.80
2017-12-25T14:56:04.442Z,75.10
2017-12-25T14:58:33.009Z,74.90
2017-12-25T15:01:00.858Z,74.80
2017-12-25T15:03:28.688Z,74.80
2017-12-25T15:05:56.494Z,74.40
2017-12-25T15:08:24.354Z,75.00
2017-12-25T15:10:52.229Z,75.10
2017-12-25T15:13:19.998Z,74.60
2017-12-25T15:15:47.632Z,74.50
2017-12-25T15:18:15.230Z,75.20
2017-12-25T15:20:42.869Z,74.60
2017-12-25T15:23:10.733Z,74.60
2017-12-25T15:25:38.610Z,74.30
2017-12-25T15:28:06.579Z,74.20
2017-12-25T15:30:34.442Z,74.10
2017-12-25T15:33:02.409Z,74.50
2017-12-25T15:35:30.221Z,74.40
2017-12-25T15:37:58.866Z,74.00
2017-12-25T15:40:26.838Z,74.00
2017-12-25T15:42:54.700Z,74.10
2017-12-25T15:45:22.668Z,74.00
2017-12-25T15:47:50.639Z,73.70
2017-12-25T15:50:18.979Z,73.80
2017-12-25T15:52:47.694Z,74.00
2017-12-25T15:55:15.674Z,74.00
2017-12-25T15:57:43.539Z,74.00
2017-12-25T16:00:11.404Z,73.50
2017-12-25T16:02:39.378Z,74.00
2017-12-25T16:05:07.247Z,73.70
2017-12-25T16:07:35.206Z,74.00
2017-12-25T16:10:03.075Z,73.80
2017-12-25T16:12:31.048Z,73.80
2017-12-25T16:14:58.923Z,73.70
2017-12-25T16:17:26.844Z,73.80
2017-12-25T16:19:54.755Z,73.70
2017-12-25T16:22:22.718Z,73.90
2017-12-25T16:24:50.792Z,73.50
2017-12-25T16:27:19.429Z,74.00
2017-12-25T16:29:47.398Z,73.10
2017-12-25T16:32:16.365Z,73.20
2017-12-25T16:34:45.020Z,72.90
2017-12-25T16:37:13.088Z,72.80
2017-12-25T16:39:40.961Z,72.40
2017-12-25T16:42:08.819Z,73.00
2017-12-25T16:44:36.689Z,72.50
2017-12-25T16:47:04.516Z,72.60
2017-12-25T16:49:32.426Z,72.30
2017-12-25T16:52:00.292Z,72.90
2017-12-25T16:54:28.058Z,72.40
2017-12-25T16:56:56.031Z,72.40
2017-12-25T16:59:23.888Z,72.70
2017-12-25T17:01:51.759Z,72.60
2017-12-25T17:04:19.620Z,72.70
2017-12-25T17:06:47.494Z,72.40
2017-12-25T17:09:15.365Z,72.40
2017-12-25T17:11:43.246Z,72.20
2017-12-25T17:14:10.865Z,72.50
2017-12-25T17:16:38.475Z,72.60
2017-12-25T17:19:06.881Z,73.20
2017-12-25T17:21:34.475Z,72.20
2017-12-25T17:24:02.113Z,72.60
2017-12-25T17:26:29.721Z,72.10
2017-12-25T17:28:57.341Z,72.50
2017-12-25T17:31:24.974Z,72.50
2017-12-25T17:33:53.341Z,72.30
2017-12-25T17:36:20.970Z,72.20
2017-12-25T17:38:48.577Z,72.30
2017-12-25T17:41:16.969Z,72.20
2017-12-25T17:43:44.567Z,72.00
2017-12-25T17:46:12.536Z,72.00
2017-12-25T17:48:40.408Z,71.70
2017-12-25T17:51:08.375Z,71.60
2017-12-25T17:53:36.342Z,71.50
2017-12-25T17:56:04.209Z,71.60
2017-12-25T17:58:32.175Z,71.10
2017-12-25T18:01:00.154Z,70.60
2017-12-25T18:03:28.939Z,70.50
2017-12-25T18:05:56.801Z,70.50
2017-12-25T18:08:24.675Z,70.70
2017-12-25T18:10:52.636Z,70.80
2017-12-25T18:13:20.451Z,70.90
2017-12-25T18:15:49.937Z,71.20
2017-12-25T18:18:17.731Z,71.10
2017-12-25T18:20:46.864Z,71.60
2017-12-25T18:23:14.620Z,71.30
2017-12-25T18:25:42.440Z,71.00
2017-12-25T18:28:10.962Z,71.20
2017-12-25T18:30:38.774Z,71.10
2017-12-25T18:33:06.576Z,71.10
2017-12-25T18:35:34.368Z,71.20
2017-12-25T18:38:02.137Z,71.00
2017-12-25T18:40:29.961Z,71.20
2017-12-25T18:42:57.799Z,71.00
2017-12-25T18:45:25.612Z,70.40
2017-12-25T18:47:53.436Z,70.90
2017-12-25T18:50:22.096Z,70.70
2017-12-25T18:52:50.066Z,70.70
2017-12-25T18:55:17.924Z,70.60
2017-12-25T18:57:45.791Z,70.90
2017-12-25T19:00:13.660Z,70.40
2017-12-25T19:02:41.528Z,71.00
2017-12-25T19:05:09.501Z,71.00
2017-12-25T19:07:37.317Z,70.50
2017-12-25T19:10:05.127Z,70.70
2017-12-25T19:12:33.093Z,71.00
2017-12-25T19:15:00.959Z,70.70
2017-12-25T19:17:28.841Z,70.90
2017-12-25T19:19:56.590Z,71.10
2017-12-25T19:22:24.566Z,71.10
2017-12-25T19:24:52.431Z,71.10
2017-12-25T19:27:20.296Z,71.00
2017-12-25T19:29:48.156Z,71.00
2017-12-25T19:32:15.766Z,71.50
2017-12-25T19:34:44.153Z,70.90
2017-12-25T19:37:11.752Z,70.90
2017-12-25T19:39:39.380Z,71.00
2017-12-25T19:42:06.985Z,71.30
2017-12-25T19:44:34.609Z,70.90
2017-12-25T19:47:02.233Z,70.80
2017-12-25T19:49:29.920Z,70.80
2017-12-25T19:51:58.289Z,71.20
2017-12-25T19:54:26.737Z,71.00
2017-12-25T19:56:54.377Z,71.00
2017-12-25T19:59:22.144Z,71.20
2017-12-25T20:01:49.967Z,71.30
2017-12-25T20:04:18.521Z,71.30
2017-12-25T20:06:46.314Z,71.10
2017-12-25T20:09:14.855Z,70.70
2017-12-25T20:11:42.674Z,70.60
2017-12-25T20:14:10.561Z,70.50
2017-12-25T20:16:38.401Z,70.70
2017-12-25T20:19:06.033Z,70.50
2017-12-25T20:21:33.643Z,70.90
2017-12-25T20:24:01.316Z,70.60
2017-12-25T20:26:29.748Z,70.80
2017-12-25T20:28:58.148Z,70.70
2017-12-25T20:31:25.741Z,70.70
2017-12-25T20:33:53.370Z,70.60
2017-12-25T20:36:21.000Z,70.80
2017-12-25T20:38:48.599Z,70.30
2017-12-25T20:41:16.277Z,70.50
2017-12-25T20:43:43.897Z,70.20
2017-12-25T20:46:12.319Z,70.60
2017-12-25T20:48:39.925Z,70.50
2017-12-25T20:51:07.557Z,70.40
2017-12-25T20:53:35.165Z,70.60
2017-12-25T20:56:04.306Z,70.20
2017-12-25T20:58:31.941Z,70.00
2017-12-25T21:00:59.602Z,70.20
2017-12-25T21:03:27.253Z,70.20
2017-12-25T21:05:54.859Z,70.20
2017-12-25T21:08:22.496Z,69.70
2017-12-25T21:10:50.104Z,70.30
2017-12-25T21:13:17.717Z,70.30
2017-12-25T21:15:45.370Z,70.00
2017-12-25T21:18:13.244Z,69.70
2017-12-25T21:20:40.870Z,69.60
2017-12-25T21:23:09.251Z,69.10
2017-12-25T21:25:38.846Z,69.50
2017-12-25T21:28:07.274Z,69.50
2017-12-25T21:30:35.784Z,69.50
2017-12-25T21:33:03.382Z,69.40
2017-12-25T21:35:31.750Z,69.70
2017-12-25T21:38:00.191Z,70.40
2017-12-25T21:40:28.611Z,69.60
2017-12-25T21:42:56.995Z,69.90
2017-12-25T21:45:25.359Z,69.40
2017-12-25T21:47:53.207Z,69.40
2017-12-25T21:50:20.815Z,69.30
2017-12-25T21:52:48.421Z,69.20
2017-12-25T21:55:16.057Z,69.20
2017-12-25T21:57:43.687Z,68.90
2017-12-25T22:00:12.133Z,69.10
2017-12-25T22:02:39.825Z,68.90
2017-12-25T22:05:08.257Z,68.80
2017-12-25T22:07:35.854Z,68.80
2017-12-25T22:10:03.462Z,68.60
2017-12-25T22:12:31.111Z,69.20
2017-12-25T22:14:58.798Z,68.70
2017-12-25T22:17:26.437Z,68.50
2017-12-25T22:19:55.167Z,68.70
2017-12-25T22:22:22.806Z,68.80
2017-12-25T22:24:50.405Z,68.80
2017-12-25T22:27:18.236Z,68.80
2017-12-25T22:29:45.893Z,69.50
2017-12-25T22:32:13.665Z,68.50
2017-12-25T22:34:42.040Z,67.90
2017-12-25T22:37:11.463Z,68.30
2017-12-25T22:39:40.276Z,68.40
2017-12-25T22:42:07.900Z,68.30
2017-12-25T22:44:35.500Z,69.20
2017-12-25T22:47:03.138Z,68.50
2017-12-25T22:49:30.756Z,68.70
2017-12-25T22:51:58.474Z,68.10
2017-12-25T22:54:26.080Z,67.80
2017-12-25T22:56:53.708Z,68.10
2017-12-25T22:59:22.069Z,67.90
2017-12-25T23:01:49.665Z,67.80
2017-12-25T23:04:17.363Z,68.00
2017-12-25T23:06:44.965Z,67.50
2017-12-25T23:09:12.690Z,68.00
2017-12-25T23:11:40.283Z,68.10
2017-12-25T23:14:08.659Z,67.60
2017-12-25T23:16:36.280Z,67.50
2017-12-25T23:19:03.876Z,67.40
2017-12-25T23:21:31.517Z,66.90
2017-12-25T23:23:59.881Z,67.20
2017-12-25T23:26:27.493Z,67.10
2017-12-25T23:28:55.877Z,67.30
2017-12-25T23:31:24.246Z,67.20
2017-12-25T23:33:51.898Z,67.20
2017-12-25T23:36:19.496Z,66.40
2017-12-25T23:38:47.104Z,66.60
2017-12-25T23:41:14.721Z,67.20
2017-12-25T23:43:42.345Z,66.80
2017-12-25T23:46:10.085Z,67.10
2017-12-25T23:48:37.669Z,67.50
2017-12-25T23:51:05.260Z,66.80
2017-12-25T23:53:33.643Z,66.60
2017-12-25T23:56:01.348Z,66.50
2017-12-25T23:58:28.969Z,67.10
